Mount Holly, Arkansas
Current Conditions -  °F | °C
As of 4:53 AM on Sunday 21 Dec 2014 (Local Time) from KELD Reporting Station
Haze Haze  
Wind Chill: 33°   Ceiling: Unl
Heat Index: 33°   Visibility: 5mi
Dew Point: 31°   Wind: 3mph
Humidity: 92%   Direction: 30°NNE
Pressure: 30.17"   Gusts: NA
Location:  33.3°N, 92.96°W
Report Text: KELD 211053Z AUTO 03003KT 5SM BR CLR 01/M01 A3017 RMK AO2 SLP215 T00061006
Loading
Personal Weather Stations






























Interactive Weather Map New forecast layout! Learn more

10-Day Weather Forecast

Advertisements
Track Severe Weather on mobile